Time;durP1;ratioP1;P1;durP2;ratioP2;P2;SDS_P1;SDS_P2;PMS_P1;PMS_P2;Temp;Humidity;BMP_temperature;BMP_pressure;BME280_temperature;BME280_humidity;BME280_pressure;Samples;Min_cycle;Max_cycle;Signal;HPM_P1;HPM_P2
2021/10/21 00:01:04;;;;;;;2.43;2.10;;;16.60;99.90;;;;;;5094886;28;20189;-70
2021/10/21 00:03:30;;;;;;;3.00;2.40;;;16.50;99.90;;;;;;5093127;28;20168;-69
2021/10/21 00:05:56;;;;;;;2.70;2.50;;;16.50;99.90;;;;;;5094680;28;20464;-69
2021/10/21 00:08:21;;;;;;;2.50;2.30;;;16.50;99.90;;;;;;5091616;28;20689;-71
2021/10/21 00:10:48;;;;;;;2.60;2.23;;;16.60;99.90;;;;;;5093128;28;20178;-69
2021/10/21 00:13:14;;;;;;;2.20;2.00;;;16.50;99.90;;;;;;5094179;28;20176;-70
2021/10/21 00:15:39;;;;;;;3.50;2.50;;;16.60;99.90;;;;;;5072367;28;20420;-71
2021/10/21 00:18:05;;;;;;;2.20;2.00;;;16.50;99.90;;;;;;5072447;28;20468;-70
2021/10/21 00:20:31;;;;;;;2.30;2.10;;;16.50;99.90;;;;;;5072580;28;20191;-70
2021/10/21 00:22:56;;;;;;;2.17;1.73;;;16.40;99.90;;;;;;5072546;28;20521;-70
2021/10/21 00:25:22;;;;;;;2.87;2.37;;;16.40;99.90;;;;;;5072425;28;20177;-71
2021/10/21 00:27:47;;;;;;;2.43;2.17;;;16.50;99.90;;;;;;5072323;28;20231;-70
2021/10/21 00:30:13;;;;;;;2.20;1.70;;;16.40;99.90;;;;;;5072400;28;20605;-70
2021/10/21 00:32:39;;;;;;;2.10;1.90;;;16.50;99.90;;;;;;5072395;28;20628;-70
2021/10/21 00:35:04;;;;;;;2.53;2.30;;;16.50;99.90;;;;;;5072431;28;20574;-70
2021/10/21 00:37:30;;;;;;;2.47;2.27;;;16.50;99.90;;;;;;5072256;28;20193;-70
2021/10/21 00:39:55;;;;;;;3.40;2.53;;;16.50;99.90;;;;;;5072330;28;20318;-70
2021/10/21 00:42:21;;;;;;;2.40;2.20;;;16.50;99.90;;;;;;5072170;28;20199;-70
2021/10/21 00:44:47;;;;;;;2.83;2.30;;;16.60;99.90;;;;;;5071938;28;20169;-71
2021/10/21 00:47:12;;;;;;;2.77;2.30;;;16.50;99.90;;;;;;5071943;28;20207;-72
2021/10/21 00:49:38;;;;;;;1.90;1.70;;;16.50;99.90;;;;;;5070858;28;20171;-69
2021/10/21 00:52:04;;;;;;;2.73;2.40;;;16.50;99.90;;;;;;5082612;28;20174;-69
2021/10/21 00:54:30;;;;;;;2.07;1.87;;;16.50;99.90;;;;;;5071811;28;20642;-70
2021/10/21 00:56:57;;;;;;;2.37;2.10;;;16.40;99.90;;;;;;5080959;28;20472;-69
2021/10/21 00:59:22;;;;;;;2.37;2.17;;;16.50;99.90;;;;;;5092041;28;20250;-70
2021/10/21 01:01:48;;;;;;;2.10;1.93;;;16.50;99.90;;;;;;5090675;28;20474;-69
2021/10/21 01:04:13;;;;;;;2.30;2.10;;;16.50;99.90;;;;;;5091884;28;20700;-70
2021/10/21 01:06:42;;;;;;;2.00;1.80;;;16.50;99.90;;;;;;5091799;28;20233;-70
2021/10/21 01:09:09;;;;;;;3.30;2.00;;;16.50;99.90;;;;;;5089962;28;20176;-71
2021/10/21 01:11:34;;;;;;;1.80;1.70;;;16.50;99.90;;;;;;5083339;28;20423;-70
2021/10/21 01:14:01;;;;;;;2.60;2.03;;;16.40;99.90;;;;;;5088735;28;20977;-70
2021/10/21 01:16:27;;;;;;;2.27;2.07;;;16.40;99.90;;;;;;5091827;28;20180;-69
2021/10/21 01:18:52;;;;;;;2.70;2.00;;;16.50;99.90;;;;;;5091781;28;20803;-70
2021/10/21 01:21:18;;;;;;;2.67;2.20;;;16.40;99.90;;;;;;5091789;28;20174;-70
2021/10/21 01:23:43;;;;;;;2.27;2.07;;;16.40;99.90;;;;;;5091350;28;20226;-70
2021/10/21 01:26:11;;;;;;;3.40;2.23;;;16.40;99.90;;;;;;5091520;28;20199;-70
2021/10/21 01:28:38;;;;;;;1.87;1.77;;;16.40;99.90;;;;;;5091316;28;20198;-69
2021/10/21 01:31:04;;;;;;;2.33;2.00;;;16.50;99.90;;;;;;5091231;28;20462;-71
2021/10/21 01:33:30;;;;;;;2.67;2.47;;;16.50;99.90;;;;;;5091145;28;20417;-70
2021/10/21 01:35:56;;;;;;;3.17;2.37;;;16.50;99.90;;;;;;5091385;28;20446;-71
2021/10/21 01:38:21;;;;;;;2.27;2.07;;;16.50;99.90;;;;;;5091386;28;20184;-70
2021/10/21 01:40:47;;;;;;;2.10;1.90;;;16.50;99.90;;;;;;5089811;28;20262;-68
2021/10/21 01:43:13;;;;;;;4.53;2.60;;;16.50;99.90;;;;;;5091054;28;20175;-69
2021/10/21 01:45:39;;;;;;;2.17;2.07;;;16.50;99.90;;;;;;5091007;28;20692;-69
2021/10/21 01:48:05;;;;;;;2.23;2.03;;;16.50;99.90;;;;;;5090992;28;20472;-69
2021/10/21 01:50:31;;;;;;;2.67;2.30;;;16.50;99.90;;;;;;5091313;28;20772;-69
2021/10/21 01:52:57;;;;;;;1.87;1.73;;;16.50;99.90;;;;;;5091054;28;20438;-68
2021/10/21 01:55:23;;;;;;;2.10;1.87;;;16.50;99.90;;;;;;5091085;28;20413;-71
2021/10/21 01:57:49;;;;;;;3.50;2.40;;;16.50;99.90;;;;;;5091094;28;20429;-70
2021/10/21 02:00:18;;;;;;;1.63;1.53;;;16.50;99.90;;;;;;5090086;28;20497;-70
2021/10/21 02:02:45;;;;;;;1.60;1.50;;;16.60;99.90;;;;;;5091156;28;20833;-70
2021/10/21 02:05:12;;;;;;;1.80;1.63;;;16.60;99.90;;;;;;5090896;28;20803;-70
2021/10/21 02:07:38;;;;;;;1.93;1.83;;;16.60;99.90;;;;;;5090919;28;20548;-70
2021/10/21 02:10:06;;;;;;;1.87;1.40;;;16.60;99.90;;;;;;5091091;28;20489;-69
2021/10/21 02:12:32;;;;;;;2.30;1.90;;;16.50;99.90;;;;;;5090988;28;20171;-71
2021/10/21 02:14:57;;;;;;;1.77;1.67;;;16.60;99.90;;;;;;5091009;28;20500;-69
2021/10/21 02:17:23;;;;;;;1.70;1.60;;;16.60;99.90;;;;;;5090933;28;20513;-70
2021/10/21 02:19:49;;;;;;;1.93;1.70;;;16.60;99.90;;;;;;5092535;28;20211;-69
2021/10/21 02:22:15;;;;;;;1.53;1.10;;;16.60;99.90;;;;;;5094639;28;20173;-69
2021/10/21 02:24:40;;;;;;;1.40;1.20;;;16.60;99.90;;;;;;5094628;28;20422;-70
2021/10/21 02:27:06;;;;;;;2.33;2.10;;;16.60;99.90;;;;;;5094598;28;20640;-70
2021/10/21 02:29:31;;;;;;;1.67;1.40;;;16.60;99.90;;;;;;5094568;28;20183;-71
2021/10/21 02:31:57;;;;;;;2.67;1.60;;;16.70;99.90;;;;;;5094724;28;20579;-68
2021/10/21 02:34:22;;;;;;;1.60;1.50;;;16.70;99.90;;;;;;5094650;28;20232;-69
2021/10/21 02:36:48;;;;;;;1.70;1.20;;;16.70;99.90;;;;;;5094508;28;20198;-69
2021/10/21 02:39:13;;;;;;;2.20;1.70;;;16.70;99.90;;;;;;5094609;28;20522;-70
2021/10/21 02:41:39;;;;;;;1.60;1.50;;;16.70;99.90;;;;;;5094503;28;20259;-70
2021/10/21 02:44:04;;;;;;;1.90;1.80;;;16.80;99.90;;;;;;5094626;28;20182;-70
2021/10/21 02:46:30;;;;;;;1.40;1.30;;;16.70;99.90;;;;;;5094089;28;20204;-70
2021/10/21 02:48:55;;;;;;;2.13;1.43;;;16.80;99.90;;;;;;5094313;28;20586;-69
2021/10/21 02:51:21;;;;;;;2.80;1.70;;;16.80;99.90;;;;;;5091028;28;20596;-69
2021/10/21 02:53:48;;;;;;;1.20;1.10;;;16.80;99.90;;;;;;5093364;28;20258;-69
2021/10/21 02:56:14;;;;;;;1.33;1.23;;;16.80;99.90;;;;;;5093827;28;20575;-69
2021/10/21 02:58:39;;;;;;;2.73;1.23;;;16.70;99.90;;;;;;5093787;28;20468;-70
2021/10/21 03:01:05;;;;;;;1.30;1.20;;;16.70;99.90;;;;;;5093832;28;20159;-70
2021/10/21 03:03:30;;;;;;;1.57;1.27;;;16.70;99.90;;;;;;5093946;28;20168;-70
2021/10/21 03:05:55;;;;;;;2.30;1.60;;;16.70;99.90;;;;;;5093741;28;20171;-70
2021/10/21 03:08:21;;;;;;;0.83;0.80;;;16.70;99.90;;;;;;5093792;28;20215;-70
2021/10/21 03:10:48;;;;;;;1.73;1.33;;;16.70;99.90;;;;;;5092476;28;20171;-70
2021/10/21 03:13:14;;;;;;;1.53;1.40;;;16.60;99.90;;;;;;5093991;28;20165;-70
2021/10/21 03:15:42;;;;;;;1.37;1.13;;;16.60;99.90;;;;;;5093576;28;20454;-70
2021/10/21 03:18:08;;;;;;;1.20;1.10;;;16.60;99.90;;;;;;5093394;28;20548;-70
2021/10/21 03:20:35;;;;;;;1.43;1.33;;;16.60;99.90;;;;;;5093558;28;20485;-69
2021/10/21 03:23:03;;;;;;;1.77;1.67;;;16.60;99.90;;;;;;5093621;28;20283;-69
2021/10/21 03:25:29;;;;;;;1.70;1.60;;;16.60;99.90;;;;;;5093339;28;20425;-68
2021/10/21 03:27:54;;;;;;;1.57;1.20;;;16.60;99.90;;;;;;5093337;28;20934;-69
2021/10/21 03:30:20;;;;;;;1.87;1.67;;;16.60;99.90;;;;;;5093170;28;20443;-69
2021/10/21 03:32:45;;;;;;;1.20;1.10;;;16.60;99.90;;;;;;5092932;28;20215;-68
2021/10/21 03:35:11;;;;;;;1.30;1.10;;;16.60;99.90;;;;;;5093028;28;20180;-70
2021/10/21 03:37:37;;;;;;;1.30;1.10;;;16.50;99.90;;;;;;5093162;28;20208;-69
2021/10/21 03:40:04;;;;;;;1.20;1.00;;;16.60;99.90;;;;;;5093454;28;20181;-69
2021/10/21 03:42:29;;;;;;;1.43;1.23;;;16.60;99.90;;;;;;5091727;28;20683;-71
2021/10/21 03:44:57;;;;;;;1.47;1.37;;;16.60;99.90;;;;;;5093308;28;20455;-70
2021/10/21 03:47:23;;;;;;;2.53;1.30;;;16.50;99.90;;;;;;5093247;28;20229;-70
2021/10/21 03:49:50;;;;;;;1.87;1.37;;;16.50;99.90;;;;;;5092851;28;20897;-69
2021/10/21 03:52:18;;;;;;;1.27;1.17;;;16.60;99.90;;;;;;5093255;28;20410;-70
2021/10/21 03:54:43;;;;;;;1.50;1.40;;;16.60;99.90;;;;;;5092999;28;20787;-69
2021/10/21 03:57:08;;;;;;;1.50;1.40;;;16.60;99.90;;;;;;5093265;28;20432;-69
2021/10/21 03:59:34;;;;;;;1.43;1.20;;;16.60;99.90;;;;;;5093072;28;20199;-71
2021/10/21 04:02:00;;;;;;;1.50;1.40;;;16.60;99.90;;;;;;5092826;28;20195;-70
2021/10/21 04:04:25;;;;;;;0.80;0.80;;;16.70;99.90;;;;;;5092571;28;20266;-69
2021/10/21 04:06:51;;;;;;;0.90;0.90;;;16.60;99.90;;;;;;5092881;28;20695;-70
2021/10/21 04:09:16;;;;;;;1.00;0.97;;;16.70;99.90;;;;;;5092764;28;20255;-70
2021/10/21 04:11:41;;;;;;;1.40;1.30;;;16.60;99.90;;;;;;5092527;28;20656;-70
2021/10/21 04:14:07;;;;;;;1.00;0.90;;;16.60;99.90;;;;;;5090838;28;20193;-70
2021/10/21 04:16:32;;;;;;;1.20;1.07;;;16.70;99.90;;;;;;5092544;28;20179;-70
2021/10/21 04:18:58;;;;;;;1.00;0.90;;;16.70;99.90;;;;;;5092418;28;20192;-70
2021/10/21 04:21:23;;;;;;;1.20;1.10;;;16.70;99.90;;;;;;5092462;28;20177;-70
2021/10/21 04:23:49;;;;;;;1.50;1.40;;;16.50;99.90;;;;;;5092581;28;20235;-70
2021/10/21 04:26:15;;;;;;;1.07;0.97;;;16.30;99.90;;;;;;5092668;28;20660;-70
2021/10/21 04:28:41;;;;;;;1.00;0.90;;;16.00;99.90;;;;;;5092630;28;20192;-71
2021/10/21 04:31:06;;;;;;;1.30;1.07;;;15.90;99.90;;;;;;5092304;28;20904;-70
2021/10/21 04:33:32;;;;;;;1.03;0.93;;;15.70;99.90;;;;;;5092196;28;20157;-69
2021/10/21 04:35:57;;;;;;;1.33;0.97;;;15.60;99.90;;;;;;5092223;28;20201;-68
2021/10/21 04:38:23;;;;;;;1.20;1.10;;;15.60;99.90;;;;;;5092210;28;20237;-68
2021/10/21 04:40:48;;;;;;;1.77;1.50;;;15.50;99.90;;;;;;5090806;28;20173;-68
2021/10/21 04:43:14;;;;;;;1.03;0.77;;;15.40;99.90;;;;;;5091305;28;20216;-69
2021/10/21 04:45:39;;;;;;;0.80;0.80;;;15.40;99.90;;;;;;5092017;28;20502;-69
2021/10/21 04:48:05;;;;;;;1.30;0.80;;;15.40;99.90;;;;;;5091820;28;20378;-70
2021/10/21 04:50:31;;;;;;;1.80;0.93;;;15.30;99.90;;;;;;5092007;28;20166;-70
2021/10/21 04:52:56;;;;;;;0.73;0.73;;;15.20;99.90;;;;;;5091982;28;20241;-70
2021/10/21 04:55:23;;;;;;;1.10;1.00;;;15.20;99.90;;;;;;5090667;28;20169;-70
2021/10/21 04:57:49;;;;;;;1.40;1.30;;;15.20;99.90;;;;;;5091920;28;20239;-70
2021/10/21 05:00:15;;;;;;;1.00;0.90;;;15.20;99.90;;;;;;5091912;28;20899;-70
2021/10/21 05:02:41;;;;;;;0.70;0.70;;;15.20;99.90;;;;;;5091701;28;20442;-70
2021/10/21 05:05:07;;;;;;;0.97;0.87;;;15.20;99.90;;;;;;5090383;28;20858;-70
2021/10/21 05:07:33;;;;;;;0.80;0.80;;;15.10;99.90;;;;;;5091759;28;20284;-70
2021/10/21 05:09:58;;;;;;;1.10;1.00;;;15.10;99.90;;;;;;5091800;28;20435;-70
2021/10/21 05:12:24;;;;;;;1.03;0.90;;;15.10;99.90;;;;;;5091698;28;20171;-71
2021/10/21 05:14:49;;;;;;;1.43;0.70;;;15.00;99.90;;;;;;5091713;28;20166;-69
2021/10/21 05:17:15;;;;;;;0.90;0.80;;;15.10;99.90;;;;;;5091521;28;20273;-70
2021/10/21 05:19:41;;;;;;;0.70;0.67;;;15.10;99.90;;;;;;5091497;28;20193;-70
2021/10/21 05:22:07;;;;;;;0.80;0.70;;;15.10;99.90;;;;;;5091781;28;20833;-70
2021/10/21 05:24:32;;;;;;;0.63;0.63;;;15.10;99.90;;;;;;5091566;28;20662;-70
2021/10/21 05:26:58;;;;;;;1.30;1.00;;;15.10;99.90;;;;;;5091456;28;20276;-70
2021/10/21 05:29:24;;;;;;;1.40;0.90;;;15.10;99.90;;;;;;5091478;28;20163;-69
2021/10/21 05:31:49;;;;;;;0.90;0.80;;;15.10;99.90;;;;;;5091231;28;20172;-70
2021/10/21 05:34:14;;;;;;;1.10;1.00;;;15.10;99.90;;;;;;5091293;28;20407;-70
2021/10/21 05:36:40;;;;;;;1.40;0.90;;;15.10;99.90;;;;;;5091334;28;20189;-69
2021/10/21 05:39:06;;;;;;;2.70;1.00;;;15.10;99.90;;;;;;5091330;28;20637;-69
2021/10/21 05:41:31;;;;;;;1.73;0.87;;;15.20;99.90;;;;;;5091342;28;20193;-70
2021/10/21 05:43:57;;;;;;;1.33;0.87;;;15.20;99.90;;;;;;5091261;28;20170;-69
2021/10/21 05:46:22;;;;;;;1.47;1.37;;;15.20;99.90;;;;;;5091083;28;20168;-69
2021/10/21 05:48:48;;;;;;;0.80;0.73;;;15.30;99.90;;;;;;5091315;28;20204;-69
2021/10/21 05:51:14;;;;;;;1.20;1.00;;;15.40;99.90;;;;;;5091117;28;20169;-69
2021/10/21 05:53:40;;;;;;;0.80;0.80;;;15.40;99.90;;;;;;5091351;28;20236;-69
2021/10/21 05:56:06;;;;;;;1.10;1.00;;;15.40;99.90;;;;;;5095461;28;20164;-69
2021/10/21 05:58:31;;;;;;;1.00;0.77;;;15.50;99.90;;;;;;5095579;28;20527;-70
2021/10/21 06:00:57;;;;;;;0.80;0.77;;;15.60;99.90;;;;;;5093921;28;20186;-69
2021/10/21 06:03:25;;;;;;;0.93;0.80;;;15.60;99.90;;;;;;5095536;28;20169;-69
2021/10/21 06:05:51;;;;;;;1.13;0.97;;;15.70;99.90;;;;;;5095128;28;20173;-69
2021/10/21 06:08:17;;;;;;;1.00;0.90;;;15.70;99.90;;;;;;5094946;28;20464;-69
2021/10/21 06:10:42;;;;;;;1.03;0.93;;;15.70;99.90;;;;;;5095077;28;20223;-70
2021/10/21 06:13:07;;;;;;;1.00;0.90;;;15.80;99.90;;;;;;5094958;28;20174;-69
2021/10/21 06:15:33;;;;;;;0.73;0.70;;;15.90;99.90;;;;;;5094808;28;20633;-70
2021/10/21 06:18:02;;;;;;;0.80;0.70;;;16.00;99.90;;;;;;5094713;28;20209;-70
2021/10/21 06:20:28;;;;;;;1.37;1.07;;;16.00;99.90;;;;;;5094839;28;20162;-71
2021/10/21 06:22:55;;;;;;;1.37;1.20;;;16.00;99.90;;;;;;5094692;28;20487;-71
2021/10/21 06:25:21;;;;;;;0.97;0.90;;;16.00;99.90;;;;;;5094674;28;20405;-70
2021/10/21 06:27:46;;;;;;;1.27;1.10;;;16.00;99.90;;;;;;5094550;28;20461;-69
2021/10/21 06:30:12;;;;;;;1.00;0.90;;;16.00;99.90;;;;;;5094520;28;20260;-70
2021/10/21 06:32:38;;;;;;;0.97;0.80;;;15.90;99.90;;;;;;5094649;28;20172;-69
2021/10/21 06:35:04;;;;;;;1.00;0.90;;;15.90;99.90;;;;;;5094286;28;20168;-70
2021/10/21 06:37:31;;;;;;;1.60;0.87;;;16.00;99.90;;;;;;5094423;28;20198;-69
2021/10/21 06:39:56;;;;;;;1.10;1.00;;;16.00;99.90;;;;;;5094512;28;20993;-70
2021/10/21 06:42:23;;;;;;;1.20;0.83;;;16.00;99.90;;;;;;5094297;28;20485;-70
2021/10/21 06:44:49;;;;;;;1.00;0.90;;;16.00;99.90;;;;;;5094110;28;20169;-69
2021/10/21 06:47:14;;;;;;;1.00;0.90;;;16.00;99.90;;;;;;5094032;28;20464;-70
2021/10/21 06:49:40;;;;;;;1.17;1.07;;;16.00;99.90;;;;;;5094174;28;20493;-69
2021/10/21 06:52:05;;;;;;;1.47;1.00;;;16.10;99.90;;;;;;5094267;28;20203;-69
2021/10/21 06:54:31;;;;;;;0.70;0.70;;;16.10;99.90;;;;;;5094340;28;20667;-69
2021/10/21 06:56:57;;;;;;;1.57;0.80;;;16.10;99.90;;;;;;5094062;28;20249;-69
2021/10/21 06:59:22;;;;;;;0.70;0.70;;;16.20;99.90;;;;;;5093983;28;20479;-69
2021/10/21 07:01:48;;;;;;;1.03;0.70;;;16.20;99.90;;;;;;5094153;28;20208;-69
2021/10/21 07:04:13;;;;;;;0.60;0.60;;;16.10;99.90;;;;;;5093771;28;20172;-70
2021/10/21 07:06:39;;;;;;;0.83;0.80;;;16.20;99.90;;;;;;5092878;28;20687;-70
2021/10/21 07:09:04;;;;;;;0.80;0.60;;;16.10;99.90;;;;;;5094284;28;20535;-69
2021/10/21 07:11:31;;;;;;;0.70;0.60;;;16.10;99.90;;;;;;5092374;28;20176;-69
2021/10/21 07:13:57;;;;;;;0.90;0.77;;;16.00;99.90;;;;;;5093506;28;20161;-69
2021/10/21 07:16:22;;;;;;;0.90;0.60;;;15.90;99.90;;;;;;5093131;28;20402;-69
2021/10/21 07:18:47;;;;;;;0.80;0.70;;;15.90;99.90;;;;;;5093100;28;20435;-69
2021/10/21 07:21:17;;;;;;;0.60;0.60;;;15.80;99.90;;;;;;5093586;28;20221;-69
2021/10/21 07:23:43;;;;;;;0.73;0.70;;;15.80;99.90;;;;;;5093553;28;20205;-69
2021/10/21 07:26:09;;;;;;;0.80;0.80;;;15.80;99.90;;;;;;5094301;28;20470;-69
2021/10/21 07:28:34;;;;;;;0.90;0.70;;;15.70;99.90;;;;;;5093302;28;20487;-70
2021/10/21 07:31:00;;;;;;;0.60;0.60;;;15.60;99.90;;;;;;5088875;28;20185;-70
2021/10/21 07:33:26;;;;;;;2.80;1.63;;;15.60;99.90;;;;;;5062972;28;20195;-70
2021/10/21 07:35:52;;;;;;;0.80;0.80;;;15.90;99.90;;;;;;5073039;28;20493;-70
2021/10/21 07:38:17;;;;;;;1.70;0.80;;;16.30;99.90;;;;;;5091805;28;20544;-70
2021/10/21 07:40:43;;;;;;;0.50;0.50;;;16.50;99.90;;;;;;5094145;28;20259;-70
2021/10/21 07:43:11;;;;;;;3.50;0.70;;;16.70;99.90;;;;;;5093347;28;20204;-69
2021/10/21 07:45:37;;;;;;;1.97;0.60;;;17.20;99.90;;;;;;5093353;28;20251;-69
2021/10/21 07:48:03;;;;;;;1.10;0.80;;;17.10;99.90;;;;;;5093424;28;20583;-69
2021/10/21 07:50:28;;;;;;;0.60;0.60;;;17.00;99.90;;;;;;5086068;28;20184;-70
2021/10/21 07:52:54;;;;;;;0.90;0.70;;;17.10;99.90;;;;;;5093318;28;20425;-70
2021/10/21 07:55:20;;;;;;;0.80;0.70;;;17.00;99.90;;;;;;5093373;28;20158;-69
2021/10/21 07:57:46;;;;;;;0.50;0.50;;;16.70;99.90;;;;;;5093221;28;20580;-69
2021/10/21 08:00:12;;;;;;;0.60;0.60;;;16.80;99.90;;;;;;5093464;28;20405;-70
2021/10/21 08:02:41;;;;;;;2.07;0.77;;;16.90;99.90;;;;;;5093158;28;20828;-69
2021/10/21 08:05:07;;;;;;;0.60;0.50;;;17.20;99.90;;;;;;5093003;28;20409;-70
2021/10/21 08:07:38;;;;;;;0.70;0.70;;;17.20;99.90;;;;;;5092759;28;20455;-70
2021/10/21 08:10:03;;;;;;;0.70;0.60;;;17.20;99.90;;;;;;5092969;28;20407;-70
2021/10/21 08:12:29;;;;;;;1.00;0.60;;;17.00;99.90;;;;;;5091539;28;20411;-70
2021/10/21 08:14:54;;;;;;;1.40;0.90;;;17.10;99.90;;;;;;5093166;28;20168;-69
2021/10/21 08:17:20;;;;;;;1.83;0.60;;;17.30;99.90;;;;;;5092621;28;20191;-70
2021/10/21 08:19:45;;;;;;;1.20;1.10;;;17.10;99.90;;;;;;5092682;28;20191;-71
2021/10/21 08:22:13;;;;;;;0.87;0.60;;;17.10;99.90;;;;;;5093011;28;20588;-69
2021/10/21 08:24:51;;;;;;;0.50;0.50;;;17.10;99.90;;;;;;5088161;28;20190;-69
2021/10/21 08:27:16;;;;;;;1.00;0.73;;;17.10;99.90;;;;;;5093594;28;20453;-71
2021/10/21 08:29:42;;;;;;;1.00;0.70;;;16.70;99.90;;;;;;5079725;28;20516;-70
2021/10/21 08:32:11;;;;;;;3.17;0.70;;;16.70;99.90;;;;;;5075085;28;20264;-70
2021/10/21 08:34:37;;;;;;;2.33;0.83;;;16.70;99.90;;;;;;5074094;28;20589;-70
2021/10/21 08:37:04;;;;;;;0.50;0.50;;;16.50;99.90;;;;;;5072275;28;20454;-70
2021/10/21 08:39:29;;;;;;;0.73;0.70;;;16.30;99.90;;;;;;5072244;28;20411;-70
2021/10/21 08:41:55;;;;;;;2.47;0.77;;;16.40;99.90;;;;;;5076675;28;20425;-71
2021/10/21 08:44:21;;;;;;;0.83;0.70;;;16.60;99.90;;;;;;5075028;28;20454;-72
2021/10/21 08:46:50;;;;;;;3.90;1.10;;;16.50;99.90;;;;;;5092295;28;20240;-71
2021/10/21 08:49:16;;;;;;;0.70;0.70;;;16.40;99.90;;;;;;5092558;28;20168;-70
2021/10/21 08:51:42;;;;;;;0.80;0.80;;;16.40;99.90;;;;;;5092455;28;20897;-71
2021/10/21 08:54:07;;;;;;;1.70;0.77;;;16.40;99.90;;;;;;5092230;28;20422;-70
2021/10/21 08:56:33;;;;;;;0.80;0.60;;;16.30;99.90;;;;;;5092445;28;20186;-70
2021/10/21 08:59:03;;;;;;;0.70;0.60;;;16.30;99.90;;;;;;5097298;28;20168;-71
2021/10/21 09:01:43;;;;;;;0.77;0.60;;;16.40;99.90;;;;;;5092179;28;20208;-71
2021/10/21 09:09:25;;;;;;;0.60;0.50;;;16.30;99.90;;;;;;5091900;28;20413;-70
2021/10/21 09:12:15;;;;;;;0.67;0.60;;;16.10;99.90;;;;;;5086390;28;20409;-70
2021/10/21 09:14:51;;;;;;;0.80;0.60;;;16.10;99.90;;;;;;5091953;28;20400;-70
2021/10/21 09:17:18;;;;;;;0.60;0.50;;;16.00;99.90;;;;;;5092175;28;20423;-70
2021/10/21 09:19:45;;;;;;;2.23;0.60;;;16.00;99.90;;;;;;5091965;28;20429;-70
2021/10/21 09:22:28;;;;;;;0.73;0.60;;;16.00;99.90;;;;;;5091879;28;20410;-71
2021/10/21 09:24:56;;;;;;;2.00;1.00;;;16.00;99.90;;;;;;5087523;28;20445;-70
2021/10/21 09:27:24;;;;;;;0.50;0.50;;;15.90;99.90;;;;;;5082514;28;20456;-70
2021/10/21 09:29:56;;;;;;;2.07;0.67;;;15.90;99.90;;;;;;5077361;28;20904;-70
2021/10/21 09:32:24;;;;;;;0.70;0.70;;;15.90;99.90;;;;;;5078427;28;20421;-72
2021/10/21 09:34:53;;;;;;;0.60;0.60;;;15.80;99.90;;;;;;5091619;28;20412;-71
2021/10/21 09:37:28;;;;;;;1.60;0.70;;;15.90;99.90;;;;;;5091771;28;20429;-71
2021/10/21 09:39:59;;;;;;;0.80;0.60;;;15.70;99.90;;;;;;5091795;28;20396;-71
2021/10/21 09:42:38;;;;;;;0.50;0.50;;;15.60;99.90;;;;;;5091422;28;20523;-71
2021/10/21 09:45:14;;;;;;;1.70;0.60;;;15.50;99.90;;;;;;5091632;28;20814;-69
2021/10/21 09:47:45;;;;;;;0.67;0.57;;;15.50;99.90;;;;;;5091430;28;20492;-69
2021/10/21 09:50:21;;;;;;;0.60;0.50;;;15.50;99.90;;;;;;5092067;28;20760;-70
2021/10/21 09:53:19;;;;;;;1.70;1.00;;;15.70;99.90;;;;;;5070099;28;20404;-70
2021/10/21 09:55:51;;;;;;;0.53;0.53;;;15.60;99.90;;;;;;5071461;28;20416;-72
2021/10/21 09:58:20;;;;;;;0.60;0.50;;;15.60;99.90;;;;;;5071435;28;20432;-70
2021/10/21 10:00:46;;;;;;;0.57;0.50;;;15.60;99.90;;;;;;5087492;28;20482;-70
2021/10/21 10:03:13;;;;;;;2.07;0.80;;;15.70;99.90;;;;;;5091687;28;20419;-70
2021/10/21 10:05:40;;;;;;;0.70;0.70;;;15.70;99.90;;;;;;5091815;28;20167;-71
2021/10/21 10:08:10;;;;;;;0.70;0.70;;;15.70;99.90;;;;;;5091429;28;20453;-69
2021/10/21 10:10:37;;;;;;;1.90;0.80;;;15.70;99.90;;;;;;5091642;28;20417;-70
2021/10/21 10:13:03;;;;;;;1.50;0.60;;;15.70;99.90;;;;;;5091373;28;20405;-70
2021/10/21 10:15:29;;;;;;;1.23;0.80;;;15.70;99.90;;;;;;5091286;28;20450;-70
2021/10/21 10:17:56;;;;;;;0.63;0.60;;;15.60;99.90;;;;;;5091443;28;20205;-70
2021/10/21 10:20:27;;;;;;;1.60;1.30;;;15.60;99.90;;;;;;5091541;28;20166;-69
2021/10/21 10:22:53;;;;;;;3.90;0.70;;;15.60;99.90;;;;;;5091508;28;20409;-69
2021/10/21 10:25:21;;;;;;;0.97;0.60;;;15.60;99.90;;;;;;5091249;28;20951;-69
2021/10/21 10:27:59;;;;;;;1.50;0.73;;;15.50;99.90;;;;;;5091011;28;20468;-69
2021/10/21 10:30:46;;;;;;;1.17;0.83;;;15.50;99.90;;;;;;5089423;28;20904;-70
2021/10/21 10:33:31;;;;;;;0.60;0.60;;;15.40;99.90;;;;;;5087146;28;20440;-70
2021/10/21 10:36:27;;;;;;;0.53;0.50;;;15.20;99.90;;;;;;5070991;28;20401;-70
2021/10/21 10:38:55;;;;;;;0.90;0.60;;;15.00;99.90;;;;;;5070830;28;20409;-70
2021/10/21 10:41:43;;;;;;;0.70;0.60;;;15.20;99.90;;;;;;5072037;28;20408;-69
2021/10/21 10:44:32;;;;;;;0.83;0.70;;;15.00;99.90;;;;;;5074479;28;20803;-70
2021/10/21 10:46:58;;;;;;;0.70;0.50;;;15.00;99.90;;;;;;5074253;28;20521;-69
2021/10/21 10:49:41;;;;;;;0.60;0.60;;;14.90;99.90;;;;;;5076297;28;20417;-69
2021/10/21 10:52:12;;;;;;;0.77;0.77;;;14.70;99.90;;;;;;5094661;28;20241;-69
2021/10/21 10:54:45;;;;;;;0.60;0.60;;;14.50;99.90;;;;;;5094462;28;20403;-69
2021/10/21 10:57:12;;;;;;;0.60;0.60;;;14.10;99.90;;;;;;5094541;28;20829;-68
2021/10/21 10:59:38;;;;;;;0.70;0.70;;;13.80;99.90;;;;;;5094487;28;20408;-69
2021/10/21 11:02:22;;;;;;;0.90;0.70;;;13.40;99.90;;;;;;5094690;28;20436;-69
2021/10/21 11:04:51;;;;;;;0.50;0.50;;;13.30;99.90;;;;;;5094526;28;20400;-69
2021/10/21 11:07:17;;;;;;;1.70;0.83;;;13.00;99.90;;;;;;5093903;28;20512;-69
2021/10/21 11:09:44;;;;;;;0.80;0.60;;;13.30;99.90;;;;;;5094579;28;20408;-70
2021/10/21 11:12:12;;;;;;;1.50;0.70;;;13.20;99.90;;;;;;5093242;28;20636;-70
2021/10/21 11:14:45;;;;;;;1.10;1.00;;;13.10;99.90;;;;;;5083271;28;20856;-69
2021/10/21 11:17:12;;;;;;;0.77;0.70;;;13.00;99.90;;;;;;5074256;28;20892;-69
2021/10/21 11:19:42;;;;;;;1.47;1.00;;;13.00;99.90;;;;;;5091829;28;20435;-69
2021/10/21 11:22:09;;;;;;;0.73;0.70;;;13.00;99.90;;;;;;5094642;28;20408;-69
2021/10/21 11:24:45;;;;;;;0.70;0.60;;;12.90;99.90;;;;;;5094209;28;20517;-69
2021/10/21 11:27:11;;;;;;;0.70;0.67;;;13.00;99.90;;;;;;5094061;28;20486;-69
2021/10/21 11:29:38;;;;;;;0.60;0.60;;;13.00;99.90;;;;;;5094430;28;20426;-69
2021/10/21 11:32:08;;;;;;;0.60;0.60;;;13.10;99.90;;;;;;5094008;28;20412;-71
2021/10/21 11:34:33;;;;;;;0.60;0.60;;;13.10;99.90;;;;;;5093064;28;20408;-71
2021/10/21 11:36:59;;;;;;;0.60;0.60;;;12.90;99.90;;;;;;5076585;28;20444;-70
2021/10/21 11:39:38;;;;;;;0.70;0.63;;;13.00;99.90;;;;;;5073720;28;20194;-71
2021/10/21 11:42:07;;;;;;;0.73;0.73;;;12.80;99.90;;;;;;5073699;28;20657;-70
2021/10/21 11:44:37;;;;;;;1.23;0.70;;;12.80;99.90;;;;;;5073519;28;20416;-70
2021/10/21 11:47:05;;;;;;;0.60;0.60;;;12.80;99.90;;;;;;5073479;28;20455;-70
2021/10/21 11:49:37;;;;;;;0.70;0.60;;;12.30;99.90;;;;;;5073621;28;20550;-71
2021/10/21 11:52:11;;;;;;;0.97;0.87;;;12.30;99.90;;;;;;5073076;28;20740;-70
2021/10/21 11:54:39;;;;;;;0.70;0.60;;;12.30;99.90;;;;;;5072132;28;20458;-73
2021/10/21 11:57:05;;;;;;;0.80;0.60;;;12.30;99.90;;;;;;5073378;28;20424;-69
2021/10/21 11:59:43;;;;;;;0.80;0.73;;;12.40;99.90;;;;;;5073366;28;20440;-69
2021/10/21 12:02:16;;;;;;;0.70;0.70;;;12.50;99.90;;;;;;5073248;28;20436;-69
2021/10/21 12:04:42;;;;;;;0.70;0.70;;;12.60;99.90;;;;;;5073344;28;20431;-69
2021/10/21 12:07:09;;;;;;;0.90;0.60;;;12.90;99.90;;;;;;5073328;28;20452;-70
2021/10/21 12:09:35;;;;;;;0.60;0.57;;;12.80;99.90;;;;;;5073055;28;20405;-69
2021/10/21 12:12:06;;;;;;;0.70;0.70;;;12.70;99.90;;;;;;5076916;28;20910;-69
2021/10/21 12:14:36;;;;;;;1.10;0.80;;;12.70;99.90;;;;;;5093110;28;20772;-70
2021/10/21 12:17:03;;;;;;;0.83;0.63;;;12.80;99.90;;;;;;5093267;28;20432;-70
2021/10/21 12:19:29;;;;;;;0.60;0.60;;;13.10;99.90;;;;;;5091910;28;20419;-73
2021/10/21 12:22:14;;;;;;;1.23;0.60;;;13.10;99.90;;;;;;5093030;28;20453;-70
2021/10/21 12:24:43;;;;;;;0.80;0.70;;;13.10;99.90;;;;;;5093078;28;20189;-69
2021/10/21 12:27:17;;;;;;;0.90;0.60;;;13.00;99.90;;;;;;5092638;28;20482;-70
2021/10/21 12:29:46;;;;;;;0.60;0.60;;;13.10;99.90;;;;;;5092972;28;20408;-70
2021/10/21 12:32:21;;;;;;;2.17;0.90;;;13.00;99.90;;;;;;5097574;28;20426;-70
2021/10/21 12:34:50;;;;;;;0.70;0.70;;;12.90;99.90;;;;;;5092857;28;20490;-71
2021/10/21 12:37:22;;;;;;;1.33;0.83;;;12.80;99.90;;;;;;5093223;28;20423;-70
2021/10/21 12:39:48;;;;;;;0.80;0.70;;;12.80;99.90;;;;;;5093006;28;20829;-69
2021/10/21 12:42:24;;;;;;;1.13;0.97;;;12.80;99.90;;;;;;5092786;28;20435;-69
2021/10/21 12:44:58;;;;;;;1.77;0.90;;;12.80;99.90;;;;;;5092775;28;20688;-69
2021/10/21 12:47:27;;;;;;;0.70;0.70;;;13.00;99.90;;;;;;5092297;28;20501;-68
2021/10/21 12:50:01;;;;;;;3.60;1.43;;;13.00;99.90;;;;;;5092631;28;20952;-72
2021/10/21 12:52:31;;;;;;;1.33;0.80;;;13.00;99.90;;;;;;5092346;28;20424;-69
2021/10/21 12:55:24;;;;;;;1.30;1.03;;;13.10;99.90;;;;;;5092388;28;20402;-69